首页
METAR-TAF:

METAR-TAF

机场 :

Ortonville Municipal Airport (Martinson Field)

Ortonville, 明尼蘇達州, 美国

纬度: 45-18-20N, 经度: 096-25-28W, 海拔: 335米

当前天气观测

该预报发布于13分钟前的04:35 UTC
风速6节,风向西
温度 3°C
湿度 93%
气压 1005 hPa
能見度: 16.1公里
散云层高于4500英尺
散云层高于6500英尺
多云层高于7000英尺

METAR: KVVV 190435Z AUTO 26006KT 10SM SCT045 SCT065 BKN070 03/02 A2968 RMK AO2

时间: 22:48 (04:48 UTC)


TAF: 丢失

超过4000个机场的气象观测和天气预报(METAR&TAF报告)。

可查询的气象台以黄色和红色小点在地图上表示。

将鼠标移到小点上方,可查看气象台名称。

然后点击查看天气观测和预报。

如需切换地图:点击带黑十字的绿色按钮放大地图;点击带横线的绿色按钮缩小地图;或者点击绿色箭头查看邻近地区的地图。


METAR-TAF: